Buoy 41730

sailwx.info

Track history (hours):
 
Tides and Currents Weather Stations Pressure Air Temp Water Temp Dewpoint Dewpoint Depression Visibility Wind Speed Wind Dir Waves Ship Positions

Drifting buoy 41730

Last reported at 2017-Dec-16 00:00 UTC. Time now 2017-Dec-16 01:09 UTC.
Position N 41°49' W 061°17'.

Water temperature 20.1 ° C

Date/timePositionNaut miles runAvg speedWind from/ knotsBaromVisibWave heightAir tempDewpointWater temp
2017-Dec-16 00:00N 41°49' W 061°17'0 0.4 20.1
2017-Dec-15 23:00N 41°49' W 061°17'1 1.1 20.2
2017-Dec-15 22:00N 41°50' W 061°19'1 0.9 20.1
2017-Dec-15 21:00N 41°50' W 061°20'1 0.9 20.2
2017-Dec-15 20:00N 41°50' W 061°21'1 1.5 20.2
2017-Dec-15 19:00N 41°50' W 061°23'1 1.5 20.1
2017-Dec-15 18:00N 41°50' W 061°25'1 0.9 20.2
2017-Dec-15 17:00N 41°50' W 061°26'1 1.5 20.1
2017-Dec-15 16:00N 41°49' W 061°28'1 1.5 20.1
2017-Dec-15 15:00N 41°48' W 061°29'1 1.1 20.0
2017-Dec-15 14:00N 41°47' W 061°30'1 0.7 20.0
2017-Dec-15 13:00N 41°47' W 061°31'1 0.7 20.0
2017-Dec-15 12:00N 41°46' W 061°31'1 0.6 20.0
2017-Dec-15 11:00N 41°46' W 061°31'21 0.5 20.0
2017-Dec-13 16:00N 41°41' W 061°58'1 0.7 20.2
2017-Dec-13 15:00N 41°40' W 061°59'1 1.1 20.2
2017-Dec-13 14:00N 41°40' W 062°00'1 1.3 20.2
2017-Dec-13 13:00N 41°38' W 062°01'1 1.5 20.3
2017-Dec-13 12:00N 41°37' W 062°02'2 1.9 20.3
2017-Dec-13 11:00N 41°35' W 062°02'1 1.2 20.3
2017-Dec-13 10:00N 41°34' W 062°02'2 1.8 20.3
2017-Dec-13 09:00N 41°32' W 062°02'1 1.2 20.3
2017-Dec-13 08:00N 41°31' W 062°02'1 1.3 20.4
2017-Dec-13 07:00N 41°30' W 062°02'1 1.3 20.4
2017-Dec-13 06:00N 41°29' W 062°01'1 0.7 20.3
2017-Dec-13 05:00N 41°28' W 062°01'1 0.7 20.3
2017-Dec-13 04:00N 41°28' W 062°00'1 0.6 20.3
2017-Dec-13 03:00N 41°27' W 062°00'1 0.7 20.3
2017-Dec-13 02:00N 41°26' W 061°59'1 0.7 20.3
2017-Dec-13 01:00N 41°26' W 061°59'1 0.6 20.2
2017-Dec-13 00:00N 41°25' W 061°59'0 0.0 20.2
2017-Dec-12 23:00N 41°25' W 061°59'1 0.7 20.2
2017-Dec-12 22:00N 41°25' W 061°59'1 0.6 20.3
2017-Dec-12 21:00N 41°24' W 061°59'1 0.6 20.2
2017-Dec-12 20:00N 41°23' W 061°59'1 1.2 20.2
2017-Dec-12 19:00N 41°22' W 061°59'1 0.6 20.2
2017-Dec-12 18:00N 41°22' W 061°59'1 1.2 20.1
2017-Dec-12 17:00N 41°20' W 061°59'1 0.6 20.0
2017-Dec-12 16:00N 41°20' W 061°59'1 1.3 20.0
2017-Dec-12 15:00N 41°19' W 061°59'1 0.8 20.0
2017-Dec-12 14:00N 41°18' W 061°58'1 1.1 20.0
2017-Dec-12 13:00N 41°17' W 061°57'0 0.5 20.1
2017-Dec-12 12:00N 41°17' W 061°56'1 0.8 20.1
2017-Dec-12 11:00N 41°17' W 061°56'0 0.5 20.1
2017-Dec-12 10:00N 41°17' W 061°55'0 0.5 20.2
2017-Dec-12 09:00N 41°17' W 061°55'1 0.6 20.3
2017-Dec-12 08:00N 41°17' W 061°55'0 0.0 20.3
2017-Dec-12 07:00N 41°17' W 061°55'1 0.8 20.4
2017-Dec-12 06:00N 41°18' W 061°55'0 0.5 20.4
2017-Dec-12 05:00N 41°18' W 061°56'0 0.5 20.4
2017-Dec-12 04:00N 41°18' W 061°56'1 1.1 20.4
2017-Dec-12 03:00N 41°17' W 061°58'1 0.6 20.4
2017-Dec-12 02:00N 41°17' W 061°58'1 0.8 20.3
2017-Dec-12 01:00N 41°16' W 061°58'1 1.2 20.3
2017-Dec-12 00:00N 41°15' W 061°58'1 0.6 20.3
2017-Dec-11 23:00N 41°14' W 061°58'1 0.8 20.3
2017-Dec-11 22:00N 41°14' W 061°58'0 0.0 20.3
2017-Dec-11 21:00N 41°14' W 061°58'1 0.8 20.3
2017-Dec-11 20:00N 41°13' W 061°57'1 0.8 20.3
2017-Dec-11 19:00N 41°13' W 061°56'0 0.5 20.4
2017-Dec-11 18:00N 41°13' W 061°56'0 0.0 20.3
2017-Dec-11 17:00N 41°13' W 061°56'1 0.8 20.3
2017-Dec-11 16:00N 41°12' W 061°55'0 0.5 20.3
2017-Dec-11 15:00N 41°12' W 061°55'0 0.0 20.4
2017-Dec-11 14:00N 41°12' W 061°55'0 0.0 20.4
2017-Dec-11 13:00N 41°12' W 061°55'1 0.6 20.4
2017-Dec-11 12:00N 41°11' W 061°55'0 0.0 20.4
2017-Dec-11 11:00N 41°11' W 061°55'0 0.0 20.4
2017-Dec-11 10:00N 41°11' W 061°55'0 0.5 20.4
2017-Dec-11 09:00N 41°11' W 061°55'1 0.9 20.4
2017-Dec-11 08:00N 41°11' W 061°56'1 0.8 20.4
2017-Dec-11 07:00N 41°11' W 061°57'1 0.6 20.5
2017-Dec-11 06:00N 41°10' W 061°57'1 0.8 20.5
2017-Dec-11 05:00N 41°10' W 061°58'2 0.9 20.5
2017-Dec-11 03:00N 41°08' W 061°57'1 0.8 20.6
2017-Dec-11 02:00N 41°07' W 061°56'0 0.5 20.6
2017-Dec-11 01:00N 41°07' W 061°56'0 0.5 20.6
2017-Dec-11 00:00N 41°07' W 061°55'0 0.5 20.6
2017-Dec-10 23:00N 41°07' W 061°55'0 0.5 20.6
2017-Dec-10 22:00N 41°07' W 061°54'1 0.6 20.6
2017-Dec-10 21:00N 41°08' W 061°54'1 0.6 20.6
2017-Dec-10 20:00N 41°08' W 061°54'1 0.8 20.6
2017-Dec-10 19:00N 41°09' W 061°55'0 0.5 20.6
2017-Dec-10 18:00N 41°09' W 061°55'1 1.1 20.5
2017-Dec-10 17:00N 41°10' W 061°56'1 1.1 20.5
2017-Dec-10 16:00N 41°09' W 061°58'1 0.9 20.5
2017-Dec-10 15:00N 41°09' W 061°59'1 1.1 20.5
2017-Dec-10 14:00N 41°08' W 062°00'1 1.1 20.6
2017-Dec-10 13:00N 41°08' W 062°01'2 1.8 20.6
2017-Dec-10 12:00N 41°06' W 062°01'1 1.3 20.6
2017-Dec-10 11:00N 41°05' W 062°02'1 1.2 20.6
2017-Dec-10 10:00N 41°04' W 062°02'1 1.3 20.6
2017-Dec-10 09:00N 41°02' W 062°01'1 0.6 20.7
2017-Dec-10 08:00N 41°02' W 062°01'1 0.6 20.7
2017-Dec-10 07:00N 41°01' W 062°01'1 0.8 20.8
2017-Dec-10 06:00N 41°01' W 062°02'1 0.8 20.8
2017-Dec-10 05:00N 41°00' W 062°02'1 1.1 20.9
2017-Dec-10 04:00N 40°59' W 062°04'1 0.8 20.9
2017-Dec-10 03:00N 40°59' W 062°04'1 1.1 20.9
2017-Dec-10 02:00N 40°58' W 062°05'1 0.8 20.9
2017-Dec-10 01:00N 40°58' W 062°06'1 1.3 20.8
2017-Dec-10 00:00N 40°56' W 062°07'1 1.2 20.8
2017-Dec-09 23:00N 40°55' W 062°07'1 0.6 20.8
2017-Dec-09 22:00N 40°55' W 062°07'1 1.2 20.9
2017-Dec-09 21:00N 40°53' W 062°07'1 0.6 20.9
2017-Dec-09 20:00N 40°53' W 062°07'1 0.8 20.9
2017-Dec-09 19:00N 40°52' W 062°06'1 0.8 20.9
2017-Dec-09 18:00N 40°52' W 062°05'0 0.5 20.9
2017-Dec-09 17:00N 40°52' W 062°05'1 0.8 20.9
2017-Dec-09 16:00N 40°51' W 062°04'1 0.8 20.9
2017-Dec-09 15:00N 40°50' W 062°04'0 0.5 20.9
2017-Dec-09 14:00N 40°50' W 062°03'1 1.1 21.0
2017-Dec-09 13:00N 40°50' W 062°02'1 0.9 21.0
2017-Dec-09 12:00N 40°50' W 062°01'1 1.1 21.0
2017-Dec-09 11:00N 40°49' W 061°59'1 1.4 21.0
2017-Dec-09 10:00N 40°49' W 061°58'1 0.9 20.9
2017-Dec-09 09:00N 40°49' W 061°56'1 0.9 20.8
2017-Dec-09 08:00N 40°49' W 061°55'1 1.1 20.7
2017-Dec-09 07:00N 40°50' W 061°54'1 0.9 20.9
2017-Dec-09 06:00N 40°50' W 061°53'0 0.5 21.0
2017-Dec-09 05:00N 40°50' W 061°52'0 0.5 21.0
2017-Dec-09 04:00N 40°50' W 061°52'0 0.0 21.0
2017-Dec-09 03:00N 40°50' W 061°52'0 0.5 21.0
2017-Dec-09 02:00N 40°50' W 061°51'1 1.1 20.9
2017-Dec-09 01:00N 40°49' W 061°50'1 1.1 21.0
2017-Dec-09 00:00N 40°49' W 061°49'1 0.9 21.0
2017-Dec-08 23:00N 40°49' W 061°47'1 1.1 21.1
2017-Dec-08 22:00N 40°48' W 061°46'0 0.5 21.1
2017-Dec-08 21:00N 40°48' W 061°46'1 0.9 21.2
2017-Dec-08 20:00N 40°48' W 061°44'1 0.9 21.3
2017-Dec-08 19:00N 40°48' W 061°43'0 0.5 21.4
2017-Dec-08 18:00N 40°48' W 061°43'1 0.6 21.5
2017-Dec-08 17:00N 40°47' W 061°43'0 0.5 21.6
2017-Dec-08 16:00N 40°47' W 061°42'1 0.8 21.6
2017-Dec-08 15:00N 40°47' W 061°41'1 0.8 21.6
2017-Dec-08 14:00N 40°46' W 061°41'0 0.5 21.6
2017-Dec-08 13:00N 40°46' W 061°40'1 1.3 21.6
2017-Dec-08 12:00N 40°45' W 061°40'1 0.8 21.5
2017-Dec-08 11:00N 40°44' W 061°39'0 0.5 21.4
2017-Dec-08 10:00N 40°44' W 061°38'1 0.8 21.4
2017-Dec-08 09:00N 40°44' W 061°38'2 1.5 21.3
2017-Dec-08 08:00N 40°43' W 061°37'1 0.8 21.4
2017-Dec-08 07:00N 40°42' W 061°36'2 1.5 21.4
2017-Dec-08 06:00N 40°41' W 061°35'2 1.5 21.4
2017-Dec-08 05:00N 40°40' W 061°34'1 1.1 21.3
2017-Dec-08 04:00N 40°39' W 061°32'2 1.5 21.3
2017-Dec-08 03:00N 40°38' W 061°31'1 0.9 21.6
2017-Dec-08 02:00N 40°38' W 061°30'1 0.8 21.8
2017-Dec-08 01:00N 40°37' W 061°29'1 1.1 21.8
2017-Dec-08 00:00N 40°37' W 061°28'1 1.1 21.8
2017-Dec-07 23:00N 40°36' W 061°27'1 1.1 21.8
2017-Dec-07 22:00N 40°35' W 061°26'1 1.1 21.8
2017-Dec-07 21:00N 40°35' W 061°25'2 1.5 21.8
2017-Dec-07 20:00N 40°34' W 061°23'1 1.1 21.9
2017-Dec-07 19:00N 40°33' W 061°22'1 1.1 22.0
2017-Dec-07 18:00N 40°32' W 061°21'1 1.1 22.1
2017-Dec-07 17:00N 40°32' W 061°20'1 1.5 22.1
2017-Dec-07 16:00N 40°31' W 061°18'1 1.5 22.2
2017-Dec-07 15:00N 40°31' W 061°16'2 1.9 22.2
2017-Dec-07 14:00N 40°30' W 061°14'2 1.8 22.2
2017-Dec-07 13:00N 40°30' W 061°11'2 1.9 22.2
2017-Dec-07 12:00N 40°29' W 061°09'2 1.8 22.1
2017-Dec-07 11:00N 40°28' W 061°07'1 1.5 22.1
2017-Dec-07 10:00N 40°28' W 061°05'2 1.5 22.1
2017-Dec-07 09:00N 40°26' W 061°04'2 1.8 22.1
2017-Dec-07 08:00N 40°25' W 061°02'2 1.8 22.1
2017-Dec-07 07:00N 40°24' W 061°01'2 1.8 22.2
2017-Dec-07 06:00N 40°23' W 060°59'2 1.8 22.2
2017-Dec-07 05:00N 40°22' W 060°57'2 1.8 22.2
2017-Dec-07 04:00N 40°20' W 060°55'3 2.6 21.9
2017-Dec-07 03:00N 40°19' W 060°53'2 1.9 21.9
2017-Dec-07 02:00N 40°18' W 060°50'2 1.8 21.9
2017-Dec-07 01:00N 40°17' W 060°49'2 2.2 21.9
2017-Dec-07 00:00N 40°16' W 060°46'3 2.6 21.8
2017-Dec-06 23:00N 40°14' W 060°44'2 2.3 21.8
2017-Dec-06 22:00N 40°12' W 060°42'2 2.3 21.6
2017-Dec-06 21:00N 40°10' W 060°40'2 2.0 21.6
2017-Dec-06 20:00N 40°08' W 060°39'2 1.5 21.8
2017-Dec-06 19:00N 40°07' W 060°38'2 1.5 22.4
2017-Dec-06 18:00N 40°06' W 060°37'2 1.8 22.5
2017-Dec-06 17:00N 40°05' W 060°35'2 1.5 22.6
2017-Dec-06 16:00N 40°04' W 060°34'2 1.8 22.6
2017-Dec-06 15:00N 40°02' W 060°32'2 1.8 22.6
2017-Dec-06 14:00N 40°01' W 060°30'2 1.8 22.6
2017-Dec-06 13:00N 40°00' W 060°28'2 1.5 22.7
2017-Dec-06 12:00N 39°59' W 060°27'2 2.3 1026.2 22.7
2017-Dec-06 11:00N 39°57' W 060°25'2 1.5 1026.3 22.6
2017-Dec-06 10:00N 39°56' W 060°24'2 2.3 1025.7 22.6
2017-Dec-06 09:00N 39°54' W 060°22'2 2.0 1023.6 22.6
2017-Dec-06 08:00N 39°52' W 060°21'2 1.8 1023.2 22.6
2017-Dec-06 07:00N 39°51' W 060°19'2 2.0 1023.7 22.6
2017-Dec-06 06:00N 39°49' W 060°18'1 1.3 1022.9 22.6
2017-Dec-06 05:00N 39°48' W 060°17'2 1.9 1022.9 22.6
2017-Dec-06 04:00N 39°46' W 060°17'2 1.9 1023.5 22.5
2017-Dec-06 03:00N 39°44' W 060°16'2 1.9 1024.0 22.5
2017-Dec-06 02:00N 39°43' W 060°16'2 2.4 1022.7 22.5
2017-Dec-06 01:00N 39°40' W 060°15'2 1.8 1023.5 22.6
2017-Dec-06 00:00N 39°38' W 060°15'   1023.8 22.5
Track history (hours):
 
Tides and Currents Weather Stations Pressure Air Temp Water Temp Dewpoint Dewpoint Depression Visibility Wind Speed Wind Dir Waves Ship Positions

Drifting buoy 41730

Last reported at 2017-Dec-16 00:00 UTC. Time now 2017-Dec-16 01:09 UTC.
Position N 41°49' W 061°17'.

Water temperature 20.1 ° C

Date/timePositionNaut miles runAvg speedWind from/ knotsBaromVisibWave heightAir tempDewpointWater temp
2017-Dec-16 00:00N 41°49' W 061°17'0 0.4 20.1
2017-Dec-15 23:00N 41°49' W 061°17'1 1.1 20.2
2017-Dec-15 22:00N 41°50' W 061°19'1 0.9 20.1
2017-Dec-15 21:00N 41°50' W 061°20'1 0.9 20.2
2017-Dec-15 20:00N 41°50' W 061°21'1 1.5 20.2
2017-Dec-15 19:00N 41°50' W 061°23'1 1.5 20.1
2017-Dec-15 18:00N 41°50' W 061°25'1 0.9 20.2
2017-Dec-15 17:00N 41°50' W 061°26'1 1.5 20.1
2017-Dec-15 16:00N 41°49' W 061°28'1 1.5 20.1
2017-Dec-15 15:00N 41°48' W 061°29'1 1.1 20.0
2017-Dec-15 14:00N 41°47' W 061°30'1 0.7 20.0
2017-Dec-15 13:00N 41°47' W 061°31'1 0.7 20.0
2017-Dec-15 12:00N 41°46' W 061°31'1 0.6 20.0
2017-Dec-15 11:00N 41°46' W 061°31'21 0.5 20.0
2017-Dec-13 16:00N 41°41' W 061°58'1 0.7 20.2
2017-Dec-13 15:00N 41°40' W 061°59'1 1.1 20.2
2017-Dec-13 14:00N 41°40' W 062°00'1 1.3 20.2
2017-Dec-13 13:00N 41°38' W 062°01'1 1.5 20.3
2017-Dec-13 12:00N 41°37' W 062°02'2 1.9 20.3
2017-Dec-13 11:00N 41°35' W 062°02'1 1.2 20.3
2017-Dec-13 10:00N 41°34' W 062°02'2 1.8 20.3
2017-Dec-13 09:00N 41°32' W 062°02'1 1.2 20.3
2017-Dec-13 08:00N 41°31' W 062°02'1 1.3 20.4
2017-Dec-13 07:00N 41°30' W 062°02'1 1.3 20.4
2017-Dec-13 06:00N 41°29' W 062°01'1 0.7 20.3
2017-Dec-13 05:00N 41°28' W 062°01'1 0.7 20.3
2017-Dec-13 04:00N 41°28' W 062°00'1 0.6 20.3
2017-Dec-13 03:00N 41°27' W 062°00'1 0.7 20.3
2017-Dec-13 02:00N 41°26' W 061°59'1 0.7 20.3
2017-Dec-13 01:00N 41°26' W 061°59'1 0.6 20.2
2017-Dec-13 00:00N 41°25' W 061°59'0 0.0 20.2
2017-Dec-12 23:00N 41°25' W 061°59'1 0.7 20.2
2017-Dec-12 22:00N 41°25' W 061°59'1 0.6 20.3
2017-Dec-12 21:00N 41°24' W 061°59'1 0.6 20.2
2017-Dec-12 20:00N 41°23' W 061°59'1 1.2 20.2
2017-Dec-12 19:00N 41°22' W 061°59'1 0.6 20.2
2017-Dec-12 18:00N 41°22' W 061°59'1 1.2 20.1
2017-Dec-12 17:00N 41°20' W 061°59'1 0.6 20.0
2017-Dec-12 16:00N 41°20' W 061°59'1 1.3 20.0
2017-Dec-12 15:00N 41°19' W 061°59'1 0.8 20.0
2017-Dec-12 14:00N 41°18' W 061°58'1 1.1 20.0
2017-Dec-12 13:00N 41°17' W 061°57'0 0.5 20.1
2017-Dec-12 12:00N 41°17' W 061°56'1 0.8 20.1
2017-Dec-12 11:00N 41°17' W 061°56'0 0.5 20.1
2017-Dec-12 10:00N 41°17' W 061°55'0 0.5 20.2
2017-Dec-12 09:00N 41°17' W 061°55'1 0.6 20.3
2017-Dec-12 08:00N 41°17' W 061°55'0 0.0 20.3
2017-Dec-12 07:00N 41°17' W 061°55'1 0.8 20.4
2017-Dec-12 06:00N 41°18' W 061°55'0 0.5 20.4
2017-Dec-12 05:00N 41°18' W 061°56'0 0.5 20.4
2017-Dec-12 04:00N 41°18' W 061°56'1 1.1 20.4
2017-Dec-12 03:00N 41°17' W 061°58'1 0.6 20.4
2017-Dec-12 02:00N 41°17' W 061°58'1 0.8 20.3
2017-Dec-12 01:00N 41°16' W 061°58'1 1.2 20.3
2017-Dec-12 00:00N 41°15' W 061°58'1 0.6 20.3
2017-Dec-11 23:00N 41°14' W 061°58'1 0.8 20.3
2017-Dec-11 22:00N 41°14' W 061°58'0 0.0 20.3
2017-Dec-11 21:00N 41°14' W 061°58'1 0.8 20.3
2017-Dec-11 20:00N 41°13' W 061°57'1 0.8 20.3
2017-Dec-11 19:00N 41°13' W 061°56'0 0.5 20.4
2017-Dec-11 18:00N 41°13' W 061°56'0 0.0 20.3
2017-Dec-11 17:00N 41°13' W 061°56'1 0.8 20.3
2017-Dec-11 16:00N 41°12' W 061°55'0 0.5 20.3
2017-Dec-11 15:00N 41°12' W 061°55'0 0.0 20.4
2017-Dec-11 14:00N 41°12' W 061°55'0 0.0 20.4
2017-Dec-11 13:00N 41°12' W 061°55'1 0.6 20.4
2017-Dec-11 12:00N 41°11' W 061°55'0 0.0 20.4
2017-Dec-11 11:00N 41°11' W 061°55'0 0.0 20.4
2017-Dec-11 10:00N 41°11' W 061°55'0 0.5 20.4
2017-Dec-11 09:00N 41°11' W 061°55'1 0.9 20.4
2017-Dec-11 08:00N 41°11' W 061°56'1 0.8 20.4
2017-Dec-11 07:00N 41°11' W 061°57'1 0.6 20.5
2017-Dec-11 06:00N 41°10' W 061°57'1 0.8 20.5
2017-Dec-11 05:00N 41°10' W 061°58'2 0.9 20.5
2017-Dec-11 03:00N 41°08' W 061°57'1 0.8 20.6
2017-Dec-11 02:00N 41°07' W 061°56'0 0.5 20.6
2017-Dec-11 01:00N 41°07' W 061°56'0 0.5 20.6
2017-Dec-11 00:00N 41°07' W 061°55'0 0.5 20.6
2017-Dec-10 23:00N 41°07' W 061°55'0 0.5 20.6
2017-Dec-10 22:00N 41°07' W 061°54'1 0.6 20.6
2017-Dec-10 21:00N 41°08' W 061°54'1 0.6 20.6
2017-Dec-10 20:00N 41°08' W 061°54'1 0.8 20.6
2017-Dec-10 19:00N 41°09' W 061°55'0 0.5 20.6
2017-Dec-10 18:00N 41°09' W 061°55'1 1.1 20.5
2017-Dec-10 17:00N 41°10' W 061°56'1 1.1 20.5
2017-Dec-10 16:00N 41°09' W 061°58'1 0.9 20.5
2017-Dec-10 15:00N 41°09' W 061°59'1 1.1 20.5
2017-Dec-10 14:00N 41°08' W 062°00'1 1.1 20.6
2017-Dec-10 13:00N 41°08' W 062°01'2 1.8 20.6
2017-Dec-10 12:00N 41°06' W 062°01'1 1.3 20.6
2017-Dec-10 11:00N 41°05' W 062°02'1 1.2 20.6
2017-Dec-10 10:00N 41°04' W 062°02'1 1.3 20.6
2017-Dec-10 09:00N 41°02' W 062°01'1 0.6 20.7
2017-Dec-10 08:00N 41°02' W 062°01'1 0.6 20.7
2017-Dec-10 07:00N 41°01' W 062°01'1 0.8 20.8
2017-Dec-10 06:00N 41°01' W 062°02'1 0.8 20.8
2017-Dec-10 05:00N 41°00' W 062°02'1 1.1 20.9
2017-Dec-10 04:00N 40°59' W 062°04'1 0.8 20.9
2017-Dec-10 03:00N 40°59' W 062°04'1 1.1 20.9
2017-Dec-10 02:00N 40°58' W 062°05'1 0.8 20.9
2017-Dec-10 01:00N 40°58' W 062°06'1 1.3 20.8
2017-Dec-10 00:00N 40°56' W 062°07'1 1.2 20.8
2017-Dec-09 23:00N 40°55' W 062°07'1 0.6 20.8
2017-Dec-09 22:00N 40°55' W 062°07'1 1.2 20.9
2017-Dec-09 21:00N 40°53' W 062°07'1 0.6 20.9
2017-Dec-09 20:00N 40°53' W 062°07'1 0.8 20.9
2017-Dec-09 19:00N 40°52' W 062°06'1 0.8 20.9
2017-Dec-09 18:00N 40°52' W 062°05'0 0.5 20.9
2017-Dec-09 17:00N 40°52' W 062°05'1 0.8 20.9
2017-Dec-09 16:00N 40°51' W 062°04'1 0.8 20.9
2017-Dec-09 15:00N 40°50' W 062°04'0 0.5 20.9
2017-Dec-09 14:00N 40°50' W 062°03'1 1.1 21.0
2017-Dec-09 13:00N 40°50' W 062°02'1 0.9 21.0
2017-Dec-09 12:00N 40°50' W 062°01'1 1.1 21.0
2017-Dec-09 11:00N 40°49' W 061°59'1 1.4 21.0
2017-Dec-09 10:00N 40°49' W 061°58'1 0.9 20.9
2017-Dec-09 09:00N 40°49' W 061°56'1 0.9 20.8
2017-Dec-09 08:00N 40°49' W 061°55'1 1.1 20.7
2017-Dec-09 07:00N 40°50' W 061°54'1 0.9 20.9
2017-Dec-09 06:00N 40°50' W 061°53'0 0.5 21.0
2017-Dec-09 05:00N 40°50' W 061°52'0 0.5 21.0
2017-Dec-09 04:00N 40°50' W 061°52'0 0.0 21.0
2017-Dec-09 03:00N 40°50' W 061°52'0 0.5 21.0
2017-Dec-09 02:00N 40°50' W 061°51'1 1.1 20.9
2017-Dec-09 01:00N 40°49' W 061°50'1 1.1 21.0
2017-Dec-09 00:00N 40°49' W 061°49'1 0.9 21.0
2017-Dec-08 23:00N 40°49' W 061°47'1 1.1 21.1
2017-Dec-08 22:00N 40°48' W 061°46'0 0.5 21.1
2017-Dec-08 21:00N 40°48' W 061°46'1 0.9 21.2
2017-Dec-08 20:00N 40°48' W 061°44'1 0.9 21.3
2017-Dec-08 19:00N 40°48' W 061°43'0 0.5 21.4
2017-Dec-08 18:00N 40°48' W 061°43'1 0.6 21.5
2017-Dec-08 17:00N 40°47' W 061°43'0 0.5 21.6
2017-Dec-08 16:00N 40°47' W 061°42'1 0.8 21.6
2017-Dec-08 15:00N 40°47' W 061°41'1 0.8 21.6
2017-Dec-08 14:00N 40°46' W 061°41'0 0.5 21.6
2017-Dec-08 13:00N 40°46' W 061°40'1 1.3 21.6
2017-Dec-08 12:00N 40°45' W 061°40'1 0.8 21.5
2017-Dec-08 11:00N 40°44' W 061°39'0 0.5 21.4
2017-Dec-08 10:00N 40°44' W 061°38'1 0.8 21.4
2017-Dec-08 09:00N 40°44' W 061°38'2 1.5 21.3
2017-Dec-08 08:00N 40°43' W 061°37'1 0.8 21.4
2017-Dec-08 07:00N 40°42' W 061°36'2 1.5 21.4
2017-Dec-08 06:00N 40°41' W 061°35'2 1.5 21.4
2017-Dec-08 05:00N 40°40' W 061°34'1 1.1 21.3
2017-Dec-08 04:00N 40°39' W 061°32'2 1.5 21.3
2017-Dec-08 03:00N 40°38' W 061°31'1 0.9 21.6
2017-Dec-08 02:00N 40°38' W 061°30'1 0.8 21.8
2017-Dec-08 01:00N 40°37' W 061°29'1 1.1 21.8
2017-Dec-08 00:00N 40°37' W 061°28'1 1.1 21.8
2017-Dec-07 23:00N 40°36' W 061°27'1 1.1 21.8
2017-Dec-07 22:00N 40°35' W 061°26'1 1.1 21.8
2017-Dec-07 21:00N 40°35' W 061°25'2 1.5 21.8
2017-Dec-07 20:00N 40°34' W 061°23'1 1.1 21.9
2017-Dec-07 19:00N 40°33' W 061°22'1 1.1 22.0
2017-Dec-07 18:00N 40°32' W 061°21'1 1.1 22.1
2017-Dec-07 17:00N 40°32' W 061°20'1 1.5 22.1
2017-Dec-07 16:00N 40°31' W 061°18'1 1.5 22.2
2017-Dec-07 15:00N 40°31' W 061°16'2 1.9 22.2
2017-Dec-07 14:00N 40°30' W 061°14'2 1.8 22.2
2017-Dec-07 13:00N 40°30' W 061°11'2 1.9 22.2
2017-Dec-07 12:00N 40°29' W 061°09'2 1.8 22.1
2017-Dec-07 11:00N 40°28' W 061°07'1 1.5 22.1
2017-Dec-07 10:00N 40°28' W 061°05'2 1.5 22.1
2017-Dec-07 09:00N 40°26' W 061°04'2 1.8 22.1
2017-Dec-07 08:00N 40°25' W 061°02'2 1.8 22.1
2017-Dec-07 07:00N 40°24' W 061°01'2 1.8 22.2
2017-Dec-07 06:00N 40°23' W 060°59'2 1.8 22.2
2017-Dec-07 05:00N 40°22' W 060°57'2 1.8 22.2
2017-Dec-07 04:00N 40°20' W 060°55'3 2.6 21.9
2017-Dec-07 03:00N 40°19' W 060°53'2 1.9 21.9
2017-Dec-07 02:00N 40°18' W 060°50'2 1.8 21.9
2017-Dec-07 01:00N 40°17' W 060°49'2 2.2 21.9
2017-Dec-07 00:00N 40°16' W 060°46'3 2.6 21.8
2017-Dec-06 23:00N 40°14' W 060°44'2 2.3 21.8
2017-Dec-06 22:00N 40°12' W 060°42'2 2.3 21.6
2017-Dec-06 21:00N 40°10' W 060°40'2 2.0 21.6
2017-Dec-06 20:00N 40°08' W 060°39'2 1.5 21.8
2017-Dec-06 19:00N 40°07' W 060°38'2 1.5 22.4
2017-Dec-06 18:00N 40°06' W 060°37'2 1.8 22.5
2017-Dec-06 17:00N 40°05' W 060°35'2 1.5 22.6
2017-Dec-06 16:00N 40°04' W 060°34'2 1.8 22.6
2017-Dec-06 15:00N 40°02' W 060°32'2 1.8 22.6
2017-Dec-06 14:00N 40°01' W 060°30'2 1.8 22.6
2017-Dec-06 13:00N 40°00' W 060°28'2 1.5 22.7
2017-Dec-06 12:00N 39°59' W 060°27'2 2.3 1026.2 22.7
2017-Dec-06 11:00N 39°57' W 060°25'2 1.5 1026.3 22.6
2017-Dec-06 10:00N 39°56' W 060°24'2 2.3 1025.7 22.6
2017-Dec-06 09:00N 39°54' W 060°22'2 2.0 1023.6 22.6
2017-Dec-06 08:00N 39°52' W 060°21'2 1.8 1023.2 22.6
2017-Dec-06 07:00N 39°51' W 060°19'2 2.0 1023.7 22.6
2017-Dec-06 06:00N 39°49' W 060°18'1 1.3 1022.9 22.6
2017-Dec-06 05:00N 39°48' W 060°17'2 1.9 1022.9 22.6
2017-Dec-06 04:00N 39°46' W 060°17'2 1.9 1023.5 22.5
2017-Dec-06 03:00N 39°44' W 060°16'2 1.9 1024.0 22.5
2017-Dec-06 02:00N 39°43' W 060°16'2 2.4 1022.7 22.5
2017-Dec-06 01:00N 39°40' W 060°15'2 1.8 1023.5 22.6
2017-Dec-06 00:00N 39°38' W 060°15'   1023.8 22.5

Dump ship's entire track history